sensor_id;sensor_type;location;lat;lon;timestamp;pressure;altitude;pressure_sealevel;temperature;humidity
54666;BME280;40566;50.006;36.180;2023-03-14T00:04:42;100433.88;;;0.32;57.07
54666;BME280;40566;50.006;36.180;2023-03-14T00:10:06;100431.31;;;0.31;56.97
54666;BME280;40566;50.006;36.180;2023-03-14T00:15:25;100434.78;;;0.34;57.03
54666;BME280;40566;50.006;36.180;2023-03-14T00:20:44;100432.25;;;0.34;57.21
54666;BME280;40566;50.006;36.180;2023-03-14T00:26:06;100429.69;;;0.34;57.00
54666;BME280;40566;50.006;36.180;2023-03-14T00:31:25;100439.88;;;0.34;57.15
54666;BME280;40566;50.006;36.180;2023-03-14T00:36:45;100421.91;;;0.28;57.06
54666;BME280;40566;50.006;36.180;2023-03-14T00:42:04;100431.16;;;0.25;57.28
54666;BME280;40566;50.006;36.180;2023-03-14T00:47:23;100422.53;;;0.19;57.42
54666;BME280;40566;50.006;36.180;2023-03-14T00:52:42;100423.31;;;0.17;57.40
54666;BME280;40566;50.006;36.180;2023-03-14T00:57:43;100421.56;;;0.14;57.74
54666;BME280;40566;50.006;36.180;2023-03-14T01:02:43;100416.53;;;0.16;57.61
54666;BME280;40566;50.006;36.180;2023-03-14T01:07:44;100409.72;;;0.15;57.65
54666;BME280;40566;50.006;36.180;2023-03-14T01:12:44;100401.97;;;0.10;57.75
54666;BME280;40566;50.006;36.180;2023-03-14T01:17:45;100403.69;;;0.11;57.77
54666;BME280;40566;50.006;36.180;2023-03-14T01:23:05;100418.91;;;0.10;58.15
54666;BME280;40566;50.006;36.180;2023-03-14T01:28:23;100416.13;;;0.01;58.37
54666;BME280;40566;50.006;36.180;2023-03-14T01:33:44;100415.25;;;-0.02;58.48
54666;BME280;40566;50.006;36.180;2023-03-14T01:38:45;100420.47;;;0.05;58.37
54666;BME280;40566;50.006;36.180;2023-03-14T01:43:47;100413.59;;;0.01;58.36
54666;BME280;40566;50.006;36.180;2023-03-14T01:54:08;100422.03;;;-0.01;58.51
54666;BME280;40566;50.006;36.180;2023-03-14T01:59:11;100424.56;;;-0.01;58.71
54666;BME280;40566;50.006;36.180;2023-03-14T02:04:12;100429.59;;;-0.04;58.69
54666;BME280;40566;50.006;36.180;2023-03-14T02:09:14;100423.63;;;-0.04;58.74
54666;BME280;40566;50.006;36.180;2023-03-14T02:14:35;100431.25;;;-0.06;58.90
54666;BME280;40566;50.006;36.180;2023-03-14T02:20:07;100438.13;;;-0.02;58.77
54666;BME280;40566;50.006;36.180;2023-03-14T02:25:39;100433.84;;;-0.03;58.84
54666;BME280;40566;50.006;36.180;2023-03-14T02:30:43;100443.16;;;-0.03;58.89
54666;BME280;40566;50.006;36.180;2023-03-14T02:40:50;100451.59;;;-0.04;58.96
54666;BME280;40566;50.006;36.180;2023-03-14T02:45:52;100454.03;;;-0.09;59.24
54666;BME280;40566;50.006;36.180;2023-03-14T02:50:55;100448.13;;;-0.08;59.10
54666;BME280;40566;50.006;36.180;2023-03-14T02:55:56;100460.00;;;-0.07;59.16
54666;BME280;40566;50.006;36.180;2023-03-14T03:00:57;100466.84;;;-0.06;59.22
54666;BME280;40566;50.006;36.180;2023-03-14T03:05:58;100455.88;;;-0.03;59.05
54666;BME280;40566;50.006;36.180;2023-03-14T03:10:59;100460.97;;;-0.03;59.12
54666;BME280;40566;50.006;36.180;2023-03-14T03:15:59;100459.06;;;-0.12;59.49
54666;BME280;40566;50.006;36.180;2023-03-14T03:21:01;100452.19;;;-0.14;59.24
54666;BME280;40566;50.006;36.180;2023-03-14T03:26:02;100458.09;;;-0.15;59.33
54666;BME280;40566;50.006;36.180;2023-03-14T03:31:08;100442.78;;;-0.17;59.38
54666;BME280;40566;50.006;36.180;2023-03-14T03:36:09;100441.00;;;-0.21;59.50
54666;BME280;40566;50.006;36.180;2023-03-14T03:41:10;100437.59;;;-0.22;59.34
54666;BME280;40566;50.006;36.180;2023-03-14T03:46:11;100447.78;;;-0.20;59.51
54666;BME280;40566;50.006;36.180;2023-03-14T03:51:13;100437.63;;;-0.20;59.56
54666;BME280;40566;50.006;36.180;2023-03-14T03:56:14;100443.59;;;-0.18;59.41
54666;BME280;40566;50.006;36.180;2023-03-14T04:01:15;100446.19;;;-0.16;59.50
54666;BME280;40566;50.006;36.180;2023-03-14T04:06:15;100442.84;;;-0.14;59.41
54666;BME280;40566;50.006;36.180;2023-03-14T04:11:16;100442.91;;;-0.12;59.52
54666;BME280;40566;50.006;36.180;2023-03-14T04:16:22;100433.03;;;-0.02;59.45
54666;BME280;40566;50.006;36.180;2023-03-14T04:21:23;100429.59;;;-0.02;59.56
54666;BME280;40566;50.006;36.180;2023-03-14T04:26:23;100449.25;;;0.04;59.66
54666;BME280;40566;50.006;36.180;2023-03-14T04:31:24;100436.47;;;0.01;59.67
54666;BME280;40566;50.006;36.180;2023-03-14T04:36:24;100441.78;;;0.08;59.57
54666;BME280;40566;50.006;36.180;2023-03-14T04:41:25;100439.34;;;0.13;59.66
54666;BME280;40566;50.006;36.180;2023-03-14T04:46:25;100448.06;;;0.23;59.71
54666;BME280;40566;50.006;36.180;2023-03-14T04:51:26;100458.44;;;0.30;59.49
54666;BME280;40566;50.006;36.180;2023-03-14T04:56:27;100473.06;;;0.39;59.50
54666;BME280;40566;50.006;36.180;2023-03-14T05:01:28;100471.41;;;0.39;59.60
54666;BME280;40566;50.006;36.180;2023-03-14T05:06:28;100481.72;;;0.46;59.60
54666;BME280;40566;50.006;36.180;2023-03-14T05:11:29;100488.78;;;0.56;59.49
54666;BME280;40566;50.006;36.180;2023-03-14T05:16:29;100494.00;;;0.62;59.57
54666;BME280;40566;50.006;36.180;2023-03-14T05:21:30;100489.91;;;0.69;59.46
54666;BME280;40566;50.006;36.180;2023-03-14T05:26:31;100492.66;;;0.76;59.33
54666;BME280;40566;50.006;36.180;2023-03-14T05:31:31;100501.47;;;0.89;59.30
54666;BME280;40566;50.006;36.180;2023-03-14T05:36:33;100499.19;;;1.02;59.00
54666;BME280;40566;50.006;36.180;2023-03-14T05:41:34;100510.44;;;1.11;58.97
54666;BME280;40566;50.006;36.180;2023-03-14T05:46:36;100510.81;;;1.28;58.80
54666;BME280;40566;50.006;36.180;2023-03-14T05:51:36;100508.59;;;1.44;58.63
54666;BME280;40566;50.006;36.180;2023-03-14T05:56:37;100500.41;;;1.57;58.48
54666;BME280;40566;50.006;36.180;2023-03-14T06:01:37;100504.16;;;1.74;58.29
54666;BME280;40566;50.006;36.180;2023-03-14T06:06:38;100495.13;;;1.90;58.04
54666;BME280;40566;50.006;36.180;2023-03-14T06:11:39;100493.69;;;2.05;57.67
54666;BME280;40566;50.006;36.180;2023-03-14T06:16:39;100486.31;;;2.20;57.34
54666;BME280;40566;50.006;36.180;2023-03-14T06:21:40;100485.84;;;2.41;57.09
54666;BME280;40566;50.006;36.180;2023-03-14T06:26:40;100482.75;;;2.59;57.02
54666;BME280;40566;50.006;36.180;2023-03-14T06:31:41;100483.97;;;2.83;56.69
54666;BME280;40566;50.006;36.180;2023-03-14T06:36:42;100483.41;;;3.01;56.56
54666;BME280;40566;50.006;36.180;2023-03-14T06:41:42;100481.94;;;3.20;56.26
54666;BME280;40566;50.006;36.180;2023-03-14T06:46:43;100474.47;;;3.33;55.92
54666;BME280;40566;50.006;36.180;2023-03-14T06:51:43;100485.84;;;3.55;55.36
54666;BME280;40566;50.006;36.180;2023-03-14T06:56:44;100479.16;;;3.67;54.81
54666;BME280;40566;50.006;36.180;2023-03-14T07:01:44;100473.44;;;3.91;54.44
54666;BME280;40566;50.006;36.180;2023-03-14T07:06:45;100477.88;;;4.04;53.90
54666;BME280;40566;50.006;36.180;2023-03-14T07:11:46;100477.16;;;4.17;53.16
54666;BME280;40566;50.006;36.180;2023-03-14T07:16:47;100476.44;;;4.29;51.92
54666;BME280;40566;50.006;36.180;2023-03-14T07:21:47;100472.16;;;4.30;50.39
54666;BME280;40566;50.006;36.180;2023-03-14T07:26:48;100474.78;;;4.37;50.03
54666;BME280;40566;50.006;36.180;2023-03-14T07:31:49;100481.69;;;4.45;49.02
54666;BME280;40566;50.006;36.180;2023-03-14T07:36:49;100461.38;;;4.66;49.11
54666;BME280;40566;50.006;36.180;2023-03-14T07:41:50;100463.25;;;4.89;49.32
54666;BME280;40566;50.006;36.180;2023-03-14T07:46:50;100459.06;;;5.05;48.87
54666;BME280;40566;50.006;36.180;2023-03-14T07:51:51;100466.88;;;5.25;48.97
54666;BME280;40566;50.006;36.180;2023-03-14T07:56:52;100461.88;;;5.52;48.68
54666;BME280;40566;50.006;36.180;2023-03-14T08:01:52;100474.78;;;5.68;48.60
54666;BME280;40566;50.006;36.180;2023-03-14T08:06:53;100459.38;;;5.66;48.51
54666;BME280;40566;50.006;36.180;2023-03-14T08:11:54;100439.75;;;5.82;48.36
54666;BME280;40566;50.006;36.180;2023-03-14T08:16:55;100432.91;;;5.81;47.46
54666;BME280;40566;50.006;36.180;2023-03-14T08:21:55;100435.50;;;5.89;46.66
54666;BME280;40566;50.006;36.180;2023-03-14T08:26:56;100435.56;;;5.95;46.46
54666;BME280;40566;50.006;36.180;2023-03-14T08:31:56;100427.84;;;5.97;45.63
54666;BME280;40566;50.006;36.180;2023-03-14T08:36:57;100427.84;;;6.00;44.94
54666;BME280;40566;50.006;36.180;2023-03-14T08:41:58;100415.91;;;6.12;44.75
54666;BME280;40566;50.006;36.180;2023-03-14T08:46:58;100418.47;;;6.31;44.40
54666;BME280;40566;50.006;36.180;2023-03-14T08:51:59;100418.47;;;6.54;44.69
54666;BME280;40566;50.006;36.180;2023-03-14T08:57:01;100420.16;;;6.67;44.41
54666;BME280;40566;50.006;36.180;2023-03-14T09:02:02;100400.47;;;6.75;44.32
54666;BME280;40566;50.006;36.180;2023-03-14T09:07:03;100402.97;;;7.00;44.13
54666;BME280;40566;50.006;36.180;2023-03-14T09:12:05;100398.53;;;7.42;44.30
54666;BME280;40566;50.006;36.180;2023-03-14T09:17:05;100400.91;;;7.79;44.14
54666;BME280;40566;50.006;36.180;2023-03-14T09:22:06;100382.44;;;14.31;33.77
54666;BME280;40566;50.006;36.180;2023-03-14T09:27:06;100377.13;;;18.89;26.81
54666;BME280;40566;50.006;36.180;2023-03-14T09:32:07;100370.34;;;22.27;23.58
54666;BME280;40566;50.006;36.180;2023-03-14T09:37:08;100367.94;;;22.24;24.70
54666;BME280;40566;50.006;36.180;2023-03-14T09:42:13;100348.50;;;23.41;23.59
54666;BME280;40566;50.006;36.180;2023-03-14T09:47:16;100335.72;;;22.06;25.65
54666;BME280;40566;50.006;36.180;2023-03-14T11:01:43;100264.31;;;20.73;24.15
54666;BME280;40566;50.006;36.180;2023-03-14T11:11:47;100258.91;;;25.55;20.80
54666;BME280;40566;50.006;36.180;2023-03-14T11:27:28;100243.09;;;27.69;19.97
54666;BME280;40566;50.006;36.180;2023-03-14T11:32:44;100218.56;;;25.30;22.27
54666;BME280;40566;50.006;36.180;2023-03-14T11:43:39;100207.28;;;26.12;21.76
54666;BME280;40566;50.006;36.180;2023-03-14T11:54:01;100199.31;;;26.34;21.22
54666;BME280;40566;50.006;36.180;2023-03-14T11:59:30;100196.25;;;23.52;23.87
54666;BME280;40566;50.006;36.180;2023-03-14T12:04:40;100190.78;;;20.86;25.78
54666;BME280;40566;50.006;36.180;2023-03-14T12:09:43;100171.41;;;17.09;29.31
54666;BME280;40566;50.006;36.180;2023-03-14T12:14:46;100168.75;;;15.30;30.85
54666;BME280;40566;50.006;36.180;2023-03-14T12:20:04;100154.03;;;13.65;31.15
54666;BME280;40566;50.006;36.180;2023-03-14T12:25:15;100152.78;;;12.96;31.89
54666;BME280;40566;50.006;36.180;2023-03-14T12:51:18;100112.63;;;11.56;32.92
54666;BME280;40566;50.006;36.180;2023-03-14T13:01:47;100106.59;;;11.21;34.00
54666;BME280;40566;50.006;36.180;2023-03-14T13:06:58;100102.22;;;11.23;34.07
54666;BME280;40566;50.006;36.180;2023-03-14T13:12:06;100106.16;;;11.03;34.21
54666;BME280;40566;50.006;36.180;2023-03-14T13:17:11;100098.75;;;10.88;34.70
54666;BME280;40566;50.006;36.180;2023-03-14T13:22:21;100095.66;;;10.72;35.01
54666;BME280;40566;50.006;36.180;2023-03-14T13:27:22;100105.44;;;10.59;35.33
54666;BME280;40566;50.006;36.180;2023-03-14T13:32:28;100077.19;;;10.50;35.79
54666;BME280;40566;50.006;36.180;2023-03-14T13:37:28;100071.34;;;10.42;35.83
54666;BME280;40566;50.006;36.180;2023-03-14T13:42:29;100065.50;;;10.32;36.13
54666;BME280;40566;50.006;36.180;2023-03-14T13:47:30;100061.50;;;10.17;36.41
54666;BME280;40566;50.006;36.180;2023-03-14T13:52:35;100050.44;;;10.09;36.45
54666;BME280;40566;50.006;36.180;2023-03-14T13:57:51;100050.78;;;9.93;36.33
54666;BME280;40566;50.006;36.180;2023-03-14T14:02:56;100046.66;;;9.83;36.79
54666;BME280;40566;50.006;36.180;2023-03-14T14:07:58;100039.13;;;9.72;37.11
54666;BME280;40566;50.006;36.180;2023-03-14T14:13:01;100033.28;;;9.63;37.71
54666;BME280;40566;50.006;36.180;2023-03-14T14:18:07;100024.81;;;9.56;37.80
54666;BME280;40566;50.006;36.180;2023-03-14T14:23:13;100024.13;;;9.48;38.09
54666;BME280;40566;50.006;36.180;2023-03-14T14:28:35;100019.03;;;9.43;38.40
54666;BME280;40566;50.006;36.180;2023-03-14T14:33:44;100025.22;;;9.35;38.42
54666;BME280;40566;50.006;36.180;2023-03-14T14:38:53;100021.25;;;9.17;38.69
54666;BME280;40566;50.006;36.180;2023-03-14T14:43:54;100029.09;;;9.10;39.30
54666;BME280;40566;50.006;36.180;2023-03-14T14:48:57;100022.34;;;9.03;39.67
54666;BME280;40566;50.006;36.180;2023-03-14T14:54:11;100026.81;;;8.90;39.95
54666;BME280;40566;50.006;36.180;2023-03-14T14:59:25;100028.75;;;8.79;40.15
54666;BME280;40566;50.006;36.180;2023-03-14T15:04:30;100044.53;;;8.59;40.54
54666;BME280;40566;50.006;36.180;2023-03-14T15:09:31;100054.13;;;8.49;40.61
54666;BME280;40566;50.006;36.180;2023-03-14T15:14:32;100052.56;;;8.36;40.73
54666;BME280;40566;50.006;36.180;2023-03-14T15:19:32;100049.25;;;8.26;41.00
54666;BME280;40566;50.006;36.180;2023-03-14T15:24:33;100045.19;;;8.10;41.11
54666;BME280;40566;50.006;36.180;2023-03-14T15:29:34;100041.91;;;7.95;41.28
54666;BME280;40566;50.006;36.180;2023-03-14T15:34:34;100036.06;;;7.81;41.58
54666;BME280;40566;50.006;36.180;2023-03-14T15:39:35;100032.75;;;7.70;41.69
54666;BME280;40566;50.006;36.180;2023-03-14T15:44:36;100032.91;;;7.58;42.00
54666;BME280;40566;50.006;36.180;2023-03-14T15:49:36;100027.91;;;7.45;42.05
54666;BME280;40566;50.006;36.180;2023-03-14T15:54:37;100022.84;;;7.34;42.30
54666;BME280;40566;50.006;36.180;2023-03-14T15:59:37;100012.69;;;7.21;42.46
54666;BME280;40566;50.006;36.180;2023-03-14T16:04:38;100009.34;;;7.12;42.65
54666;BME280;40566;50.006;36.180;2023-03-14T16:09:39;100011.16;;;7.03;42.86
54666;BME280;40566;50.006;36.180;2023-03-14T16:14:39;100018.09;;;6.93;43.02
54666;BME280;40566;50.006;36.180;2023-03-14T16:19:43;100033.50;;;6.96;43.18
54666;BME280;40566;50.006;36.180;2023-03-14T16:24:43;100020.78;;;6.79;43.24
54666;BME280;40566;50.006;36.180;2023-03-14T16:29:44;100023.44;;;6.68;43.58
54666;BME280;40566;50.006;36.180;2023-03-14T16:34:47;100015.81;;;6.58;43.77
54666;BME280;40566;50.006;36.180;2023-03-14T16:39:48;100025.28;;;6.51;43.80
54666;BME280;40566;50.006;36.180;2023-03-14T16:44:49;100021.06;;;6.44;43.95
54666;BME280;40566;50.006;36.180;2023-03-14T16:49:50;100017.66;;;6.37;44.06
54666;BME280;40566;50.006;36.180;2023-03-14T16:54:51;100018.53;;;6.31;44.30
54666;BME280;40566;50.006;36.180;2023-03-14T16:59:52;100018.56;;;6.28;44.28
54666;BME280;40566;50.006;36.180;2023-03-14T17:04:53;100017.75;;;6.22;44.32
54666;BME280;40566;50.006;36.180;2023-03-14T17:09:54;100014.38;;;6.13;44.55
54666;BME280;40566;50.006;36.180;2023-03-14T17:14:58;100011.84;;;6.06;44.78
54666;BME280;40566;50.006;36.180;2023-03-14T17:20:00;100014.44;;;6.01;44.83
54666;BME280;40566;50.006;36.180;2023-03-14T17:25:02;100013.59;;;5.96;44.93
54666;BME280;40566;50.006;36.180;2023-03-14T17:30:04;100008.44;;;5.91;44.83
54666;BME280;40566;50.006;36.180;2023-03-14T17:35:07;100017.03;;;5.87;45.12
54666;BME280;40566;50.006;36.180;2023-03-14T17:40:08;100010.19;;;5.80;45.20
54666;BME280;40566;50.006;36.180;2023-03-14T17:45:09;100006.81;;;5.73;45.24
54666;BME280;40566;50.006;36.180;2023-03-14T17:50:10;100004.28;;;5.66;45.34
54666;BME280;40566;50.006;36.180;2023-03-14T17:55:11;100004.31;;;5.56;45.57
54666;BME280;40566;50.006;36.180;2023-03-14T18:00:13;100003.47;;;5.51;45.83
54666;BME280;40566;50.006;36.180;2023-03-14T18:05:15;99999.22;;;5.43;46.15
54666;BME280;40566;50.006;36.180;2023-03-14T18:10:16;100006.09;;;5.36;46.17
54666;BME280;40566;50.006;36.180;2023-03-14T18:15:16;100000.13;;;5.29;46.26
54666;BME280;40566;50.006;36.180;2023-03-14T18:20:17;99998.41;;;5.24;46.33
54666;BME280;40566;50.006;36.180;2023-03-14T18:25:18;99981.34;;;5.18;46.50
54666;BME280;40566;50.006;36.180;2023-03-14T18:30:18;99985.59;;;5.11;46.61
54666;BME280;40566;50.006;36.180;2023-03-14T18:35:19;99985.63;;;5.08;46.71
54666;BME280;40566;50.006;36.180;2023-03-14T18:40:20;99987.34;;;5.06;46.92
54666;BME280;40566;50.006;36.180;2023-03-14T18:45:21;99980.50;;;5.02;46.93
54666;BME280;40566;50.006;36.180;2023-03-14T18:50:21;99978.81;;;4.98;46.91
54666;BME280;40566;50.006;36.180;2023-03-14T18:55:23;99976.22;;;4.95;47.14
54666;BME280;40566;50.006;36.180;2023-03-14T19:00:24;99971.97;;;4.92;47.14
54666;BME280;40566;50.006;36.180;2023-03-14T19:05:26;99980.53;;;4.88;47.18
54666;BME280;40566;50.006;36.180;2023-03-14T19:10:32;99971.13;;;4.81;47.22
54666;BME280;40566;50.006;36.180;2023-03-14T19:15:33;99971.13;;;4.76;47.45
54666;BME280;40566;50.006;36.180;2023-03-14T19:20:34;99961.75;;;4.72;47.78
54666;BME280;40566;50.006;36.180;2023-03-14T19:25:35;99958.31;;;4.70;47.78
54666;BME280;40566;50.006;36.180;2023-03-14T19:30:36;99966.84;;;4.69;47.88
54666;BME280;40566;50.006;36.180;2023-03-14T19:35:37;99960.88;;;4.69;48.10
54666;BME280;40566;50.006;36.180;2023-03-14T19:40:38;99956.63;;;4.63;47.95
54666;BME280;40566;50.006;36.180;2023-03-14T19:45:42;99957.47;;;4.62;48.12
54666;BME280;40566;50.006;36.180;2023-03-14T19:50:43;99953.22;;;4.63;48.26
54666;BME280;40566;50.006;36.180;2023-03-14T19:55:45;99945.53;;;4.56;48.45
54666;BME280;40566;50.006;36.180;2023-03-14T20:00:47;99937.81;;;4.52;48.71
54666;BME280;40566;50.006;36.180;2023-03-14T20:05:49;99929.28;;;4.45;48.81
54666;BME280;40566;50.006;36.180;2023-03-14T20:10:52;99929.31;;;4.41;48.98
54666;BME280;40566;50.006;36.180;2023-03-14T20:15:54;99926.72;;;4.37;49.26
54666;BME280;40566;50.006;36.180;2023-03-14T20:21:13;99933.56;;;4.39;49.16
54666;BME280;40566;50.006;36.180;2023-03-14T20:26:14;99938.69;;;4.39;49.21
54666;BME280;40566;50.006;36.180;2023-03-14T20:31:14;99922.44;;;4.32;49.58
54666;BME280;40566;50.006;36.180;2023-03-14T20:36:15;99925.03;;;4.33;49.56
54666;BME280;40566;50.006;36.180;2023-03-14T20:41:16;99926.75;;;4.27;49.70
54666;BME280;40566;50.006;36.180;2023-03-14T20:46:18;99918.19;;;4.25;49.84
54666;BME280;40566;50.006;36.180;2023-03-14T20:51:19;99922.47;;;4.23;49.73
54666;BME280;40566;50.006;36.180;2023-03-14T20:56:20;99925.88;;;4.22;49.91
54666;BME280;40566;50.006;36.180;2023-03-14T21:01:21;99925.88;;;4.17;50.26
54666;BME280;40566;50.006;36.180;2023-03-14T21:06:22;99926.72;;;4.16;50.35
54666;BME280;40566;50.006;36.180;2023-03-14T21:11:23;99919.88;;;4.12;50.47
54666;BME280;40566;50.006;36.180;2023-03-14T21:16:26;99915.63;;;4.11;50.62
54666;BME280;40566;50.006;36.180;2023-03-14T21:21:26;99912.19;;;4.06;50.88
54666;BME280;40566;50.006;36.180;2023-03-14T21:26:27;99909.63;;;4.04;51.07
54666;BME280;40566;50.006;36.180;2023-03-14T21:31:29;99909.63;;;4.00;51.25
54666;BME280;40566;50.006;36.180;2023-03-14T21:36:30;99904.50;;;3.93;51.45
54666;BME280;40566;50.006;36.180;2023-03-14T21:41:31;99906.19;;;3.94;51.38
54666;BME280;40566;50.006;36.180;2023-03-14T21:46:31;99898.50;;;3.93;51.71
54666;BME280;40566;50.006;36.180;2023-03-14T21:51:35;99894.25;;;3.92;51.57
54666;BME280;40566;50.006;36.180;2023-03-14T21:56:36;99886.59;;;3.93;51.83
54666;BME280;40566;50.006;36.180;2023-03-14T22:01:37;99887.41;;;3.91;51.93
54666;BME280;40566;50.006;36.180;2023-03-14T22:06:38;99885.72;;;3.88;52.09
54666;BME280;40566;50.006;36.180;2023-03-14T22:11:38;99885.75;;;3.91;52.13
54666;BME280;40566;50.006;36.180;2023-03-14T22:16:39;99882.31;;;3.89;52.16
54666;BME280;40566;50.006;36.180;2023-03-14T22:21:39;99884.03;;;3.81;52.49
54666;BME280;40566;50.006;36.180;2023-03-14T22:26:40;99872.03;;;3.77;52.79
54666;BME280;40566;50.006;36.180;2023-03-14T22:31:40;99872.91;;;3.73;52.85
54666;BME280;40566;50.006;36.180;2023-03-14T22:36:41;99875.47;;;3.71;52.88
54666;BME280;40566;50.006;36.180;2023-03-14T22:41:41;99862.66;;;3.73;52.76
54666;BME280;40566;50.006;36.180;2023-03-14T22:46:42;99860.94;;;3.69;52.96
54666;BME280;40566;50.006;36.180;2023-03-14T22:51:43;99853.28;;;3.66;53.03
54666;BME280;40566;50.006;36.180;2023-03-14T22:56:43;99855.84;;;3.66;53.19
54666;BME280;40566;50.006;36.180;2023-03-14T23:01:44;99854.16;;;3.69;53.27
54666;BME280;40566;50.006;36.180;2023-03-14T23:06:44;99854.13;;;3.77;53.22
54666;BME280;40566;50.006;36.180;2023-03-14T23:11:45;99843.06;;;3.75;53.13
54666;BME280;40566;50.006;36.180;2023-03-14T23:16:45;99839.66;;;3.74;53.35
54666;BME280;40566;50.006;36.180;2023-03-14T23:21:46;99839.66;;;3.77;53.53
54666;BME280;40566;50.006;36.180;2023-03-14T23:26:47;99834.56;;;3.85;53.55
54666;BME280;40566;50.006;36.180;2023-03-14T23:31:48;99836.28;;;3.95;53.37
54666;BME280;40566;50.006;36.180;2023-03-14T23:36:48;99820.91;;;3.92;53.62
54666;BME280;40566;50.006;36.180;2023-03-14T23:41:49;99813.22;;;3.85;53.96
54666;BME280;40566;50.006;36.180;2023-03-14T23:46:49;99825.16;;;3.73;54.16
54666;BME280;40566;50.006;36.180;2023-03-14T23:51:50;99820.88;;;3.62;54.37
54666;BME280;40566;50.006;36.180;2023-03-14T23:56:51;99818.31;;;3.57;54.39
